Dixie, Mississippi
Current Conditions -  °F | °C
As of 7:53 PM on Wednesday 22 Oct 2014 (Local Time) from KHBG Reporting Station
Clear Clear  
Wind Chill: 64°   Ceiling: Unl
Heat Index: 64°   Visibility: 10mi
Dew Point: 50°   Wind: 5mph
Humidity: 60%   Direction: 10°N
Pressure: 30.09"   Gusts: NA
Location:  31.1996°N, 89.2694°W
Report Text: KHBG 230053Z AUTO 01004KT 10SM CLR 18/10 A3009 RMK AO2 SLP188 T01780100
Loading
Personal Weather Stations






























Interactive Weather Map
Tropical Storm Tracking
New forecast layout! Learn more

10-Day Weather Forecast

Advertisements
Track Severe Weather on mobile